createdAt,value
2023-06-26T00:00:08.569Z,20.95
2023-06-26T00:01:08.568Z,20.85
2023-06-26T00:02:08.553Z,20.88
2023-06-26T00:03:08.575Z,20.87
2023-06-26T00:04:08.673Z,20.87
2023-06-26T00:05:08.521Z,20.85
2023-06-26T00:06:08.513Z,20.87
2023-06-26T00:07:08.513Z,20.87
2023-06-26T00:08:08.483Z,20.87
2023-06-26T00:09:08.469Z,20.82
2023-06-26T00:10:08.454Z,20.78
2023-06-26T00:11:08.453Z,20.74
2023-06-26T00:12:08.431Z,20.80
2023-06-26T00:13:08.434Z,20.77
2023-06-26T00:14:08.410Z,20.74
2023-06-26T00:15:08.417Z,20.65
2023-06-26T00:16:08.389Z,20.65
2023-06-26T00:17:08.391Z,20.65
2023-06-26T00:18:08.384Z,20.60
2023-06-26T00:19:08.366Z,20.51
2023-06-26T00:20:08.346Z,20.51
2023-06-26T00:21:08.356Z,20.44
2023-06-26T00:22:08.311Z,20.44
2023-06-26T00:23:08.330Z,20.44
2023-06-26T00:24:08.316Z,20.48
2023-06-26T00:25:08.317Z,20.48
2023-06-26T00:26:08.268Z,20.56
2023-06-26T00:27:08.289Z,20.50
2023-06-26T00:28:08.281Z,20.52
2023-06-26T00:29:08.264Z,20.55
2023-06-26T00:30:08.292Z,20.47
2023-06-26T00:31:08.314Z,20.44
2023-06-26T00:32:08.226Z,20.41
2023-06-26T00:33:08.220Z,20.43
2023-06-26T00:34:08.188Z,20.40
2023-06-26T00:35:08.220Z,20.40
2023-06-26T00:36:08.198Z,20.41
2023-06-26T00:37:08.186Z,20.40
2023-06-26T00:38:08.151Z,20.39
2023-06-26T00:39:08.171Z,20.32
2023-06-26T00:40:08.141Z,20.31
2023-06-26T00:41:08.144Z,20.25
2023-06-26T00:42:08.134Z,20.24
2023-06-26T00:43:08.121Z,20.18
2023-06-26T00:44:08.104Z,20.11
2023-06-26T00:45:08.098Z,20.10
2023-06-26T00:46:08.067Z,20.07
2023-06-26T00:47:08.074Z,20.06
2023-06-26T00:48:08.075Z,20.04
2023-06-26T00:49:08.054Z,20.00
2023-06-26T00:50:08.028Z,20.02
2023-06-26T00:51:08.042Z,20.02
2023-06-26T00:52:08.002Z,20.03
2023-06-26T00:53:08.024Z,20.03
2023-06-26T00:54:07.994Z,20.02
2023-06-26T00:55:07.995Z,20.03
2023-06-26T00:56:07.978Z,20.03
2023-06-26T00:57:07.975Z,20.06
2023-06-26T00:58:07.943Z,20.10
2023-06-26T00:59:07.950Z,20.13
2023-06-26T01:00:07.960Z,20.13
2023-06-26T01:01:07.926Z,20.13
2023-06-26T01:02:07.909Z,20.18
2023-06-26T01:03:08.011Z,20.21
2023-06-26T01:04:07.900Z,20.19
2023-06-26T01:05:07.864Z,20.18
2023-06-26T01:06:07.906Z,20.13
2023-06-26T01:07:07.879Z,20.06
2023-06-26T01:08:07.849Z,20.06
2023-06-26T01:09:07.830Z,20.13
2023-06-26T01:10:07.859Z,20.11
2023-06-26T01:11:07.794Z,20.16
2023-06-26T01:12:07.850Z,20.14
2023-06-26T01:13:07.786Z,20.13
2023-06-26T01:14:07.799Z,20.14
2023-06-26T01:15:07.769Z,20.16
2023-06-26T01:16:07.765Z,20.16
2023-06-26T01:17:07.729Z,20.18
2023-06-26T01:18:07.788Z,20.16
2023-06-26T01:19:07.725Z,20.14
2023-06-26T01:20:07.734Z,20.14
2023-06-26T01:21:07.692Z,20.11
2023-06-26T01:22:07.707Z,20.10
2023-06-26T01:23:07.667Z,20.07
2023-06-26T01:24:07.717Z,20.07
2023-06-26T01:25:07.655Z,20.07
2023-06-26T01:26:07.661Z,20.04
2023-06-26T01:27:07.634Z,20.02
2023-06-26T01:28:07.646Z,19.94
2023-06-26T01:29:07.636Z,19.95
2023-06-26T01:30:07.654Z,19.96
2023-06-26T01:31:07.586Z,19.94
2023-06-26T01:32:07.769Z,19.91
2023-06-26T01:33:07.624Z,19.88
2023-06-26T01:34:07.596Z,19.88
2023-06-26T01:35:07.552Z,19.88
2023-06-26T01:36:07.568Z,19.86
2023-06-26T01:37:07.574Z,19.85
2023-06-26T01:38:07.577Z,19.85
2023-06-26T01:39:07.501Z,19.81
2023-06-26T01:40:07.513Z,19.84
2023-06-26T01:41:07.499Z,19.82
2023-06-26T01:42:07.511Z,19.85
2023-06-26T01:43:07.454Z,19.86
2023-06-26T01:44:07.524Z,19.86
2023-06-26T01:45:07.451Z,19.82
2023-06-26T01:46:07.524Z,19.85
2023-06-26T01:47:07.419Z,19.86
2023-06-26T01:48:07.455Z,19.89
2023-06-26T01:49:07.403Z,19.89
2023-06-26T01:50:07.411Z,19.88
2023-06-26T01:51:07.374Z,19.82
2023-06-26T01:52:07.387Z,19.85
2023-06-26T01:53:07.361Z,19.84
2023-06-26T01:54:07.395Z,19.86
2023-06-26T01:55:07.340Z,19.89
2023-06-26T01:56:07.364Z,19.85
2023-06-26T01:57:07.360Z,19.85
2023-06-26T01:58:07.371Z,19.79
2023-06-26T01:59:07.299Z,19.76
2023-06-26T02:00:07.346Z,19.81
2023-06-26T02:01:07.406Z,19.79
2023-06-26T02:02:07.281Z,19.85
2023-06-26T02:03:07.389Z,19.84
2023-06-26T02:04:07.262Z,19.85
2023-06-26T02:05:07.244Z,19.86
2023-06-26T02:06:07.258Z,19.86
2023-06-26T02:07:07.234Z,19.86
2023-06-26T02:08:07.219Z,19.88
2023-06-26T02:09:07.185Z,19.91
2023-06-26T02:10:07.246Z,19.89
2023-06-26T02:11:07.213Z,19.88
2023-06-26T02:12:07.207Z,19.91
2023-06-26T02:13:07.154Z,19.89
2023-06-26T02:14:07.148Z,19.88
2023-06-26T02:15:07.110Z,19.89
2023-06-26T02:16:07.121Z,19.84
2023-06-26T02:17:07.093Z,19.77
2023-06-26T02:18:07.133Z,19.77
2023-06-26T02:19:07.071Z,19.84
2023-06-26T02:20:07.115Z,19.82
2023-06-26T02:21:07.046Z,19.79
2023-06-26T02:22:07.063Z,19.73
2023-06-26T02:23:07.030Z,19.82
2023-06-26T02:24:07.065Z,19.89
2023-06-26T02:25:07.017Z,19.95
2023-06-26T02:26:07.028Z,19.95
2023-06-26T02:27:06.986Z,20.02
2023-06-26T02:28:06.996Z,20.00
2023-06-26T02:29:06.958Z,19.99
2023-06-26T02:30:06.997Z,19.94
2023-06-26T02:31:06.948Z,19.95
2023-06-26T02:32:06.952Z,19.89
2023-06-26T02:33:06.976Z,19.85
2023-06-26T02:34:06.958Z,19.89
2023-06-26T02:35:06.899Z,19.92
2023-06-26T02:36:06.928Z,19.86
2023-06-26T02:37:06.897Z,19.86
2023-06-26T02:38:06.906Z,19.84
2023-06-26T02:39:06.862Z,19.84
2023-06-26T02:40:06.873Z,19.86
2023-06-26T02:41:06.876Z,19.89
2023-06-26T02:42:06.866Z,19.84
2023-06-26T02:43:06.822Z,19.84
2023-06-26T02:44:06.829Z,19.86
2023-06-26T02:45:06.794Z,19.88
2023-06-26T02:46:06.805Z,19.88
2023-06-26T02:47:06.809Z,19.84
2023-06-26T02:48:06.842Z,19.89
2023-06-26T02:49:06.761Z,19.89
2023-06-26T02:50:06.765Z,19.86
2023-06-26T02:51:06.725Z,19.85
2023-06-26T02:52:06.747Z,19.84
2023-06-26T02:53:06.702Z,19.86
2023-06-26T02:54:06.758Z,19.84
2023-06-26T02:55:06.682Z,19.85
2023-06-26T02:56:06.692Z,19.85
2023-06-26T02:57:06.676Z,19.85
2023-06-26T02:58:06.682Z,19.85
2023-06-26T02:59:06.645Z,19.84
2023-06-26T03:00:06.677Z,19.84
2023-06-26T03:01:06.649Z,19.84
2023-06-26T03:02:06.637Z,19.85
2023-06-26T03:03:06.605Z,19.82
2023-06-26T03:04:06.652Z,19.81
2023-06-26T03:05:06.575Z,19.74
2023-06-26T03:06:06.629Z,19.74
2023-06-26T03:07:06.598Z,19.70
2023-06-26T03:08:06.561Z,19.69
2023-06-26T03:09:06.531Z,19.69
2023-06-26T03:10:06.568Z,19.73
2023-06-26T03:11:06.518Z,19.74
2023-06-26T03:12:06.585Z,19.71
2023-06-26T03:13:06.495Z,19.79
2023-06-26T03:14:06.536Z,19.82
2023-06-26T03:15:06.493Z,19.84
2023-06-26T03:16:06.556Z,19.85
2023-06-26T03:17:06.453Z,19.89
2023-06-26T03:18:06.491Z,19.92
2023-06-26T03:19:06.426Z,19.94
2023-06-26T03:20:06.440Z,19.96
2023-06-26T03:21:06.448Z,19.94
2023-06-26T03:22:06.435Z,19.96
2023-06-26T03:23:06.430Z,20.02
2023-06-26T03:24:06.417Z,20.07
2023-06-26T03:25:06.414Z,20.06
2023-06-26T03:26:06.394Z,20.03
2023-06-26T03:27:06.349Z,20.06
2023-06-26T03:28:06.368Z,20.04
2023-06-26T03:29:06.331Z,20.03
2023-06-26T03:30:06.363Z,20.03
2023-06-26T03:31:06.386Z,20.00
2023-06-26T03:32:06.332Z,19.96
2023-06-26T03:33:06.293Z,20.02
2023-06-26T03:34:06.314Z,20.00
2023-06-26T03:35:07.337Z,20.02
2023-06-26T03:36:06.306Z,20.00
2023-06-26T03:37:06.259Z,20.10
2023-06-26T03:38:06.248Z,20.14
2023-06-26T03:39:06.218Z,20.22
2023-06-26T03:40:06.237Z,20.29
2023-06-26T03:41:06.199Z,20.36
2023-06-26T03:42:06.235Z,20.40
2023-06-26T03:43:06.189Z,20.44
2023-06-26T03:44:06.192Z,20.47
2023-06-26T03:45:06.264Z,20.50
2023-06-26T03:46:06.190Z,20.55
2023-06-26T03:47:06.141Z,20.55
2023-06-26T03:48:06.221Z,20.59
2023-06-26T03:49:06.718Z,20.60
2023-06-26T03:50:06.124Z,20.60
2023-06-26T03:51:06.095Z,20.58
2023-06-26T03:52:06.086Z,20.59
2023-06-26T03:53:06.092Z,20.56
2023-06-26T03:54:06.069Z,20.55
2023-06-26T03:55:06.078Z,20.58
2023-06-26T03:56:06.073Z,20.60
2023-06-26T03:57:06.063Z,20.65
2023-06-26T03:58:06.022Z,20.69
2023-06-26T03:59:06.045Z,20.75
2023-06-26T04:00:06.048Z,20.80
2023-06-26T04:01:06.021Z,20.88
2023-06-26T04:02:06.071Z,20.96
2023-06-26T04:03:06.070Z,20.96
2023-06-26T04:04:06.025Z,20.97
2023-06-26T04:05:05.964Z,21.00
2023-06-26T04:06:05.960Z,20.93
2023-06-26T04:07:05.990Z,20.99
2023-06-26T04:08:05.925Z,20.99
2023-06-26T04:09:05.920Z,21.03
2023-06-26T04:10:05.892Z,21.02
2023-06-26T04:11:05.902Z,21.02
2023-06-26T04:12:05.900Z,20.99
2023-06-26T04:13:05.880Z,20.96
2023-06-26T04:14:05.849Z,20.90
2023-06-26T04:15:05.852Z,20.87
2023-06-26T04:16:05.821Z,20.84
2023-06-26T04:17:05.834Z,20.81
2023-06-26T04:18:05.822Z,20.75
2023-06-26T04:19:05.816Z,20.81
2023-06-26T04:20:05.789Z,20.87
2023-06-26T04:21:05.800Z,20.87
2023-06-26T04:22:05.764Z,20.85
2023-06-26T04:23:05.775Z,20.85
2023-06-26T04:24:05.813Z,20.92
2023-06-26T04:25:05.780Z,20.90
2023-06-26T04:26:05.724Z,20.90
2023-06-26T04:27:05.756Z,20.90
2023-06-26T04:28:05.702Z,20.92
2023-06-26T04:29:05.715Z,20.93
2023-06-26T04:30:05.695Z,20.97
2023-06-26T04:31:05.701Z,21.00
2023-06-26T04:32:05.654Z,21.05
2023-06-26T04:33:05.665Z,21.05
2023-06-26T04:34:05.652Z,21.06
2023-06-26T04:35:05.652Z,21.06
2023-06-26T04:36:05.646Z,21.05
2023-06-26T04:37:05.623Z,21.02
2023-06-26T04:38:05.605Z,21.03
2023-06-26T04:39:05.608Z,21.06
2023-06-26T04:40:05.584Z,21.07
2023-06-26T04:41:05.606Z,21.07
2023-06-26T04:42:05.578Z,21.07
2023-06-26T04:43:05.567Z,21.06
2023-06-26T04:44:05.525Z,21.05
2023-06-26T04:45:05.545Z,21.03
2023-06-26T04:46:05.563Z,21.06
2023-06-26T04:47:05.513Z,21.07
2023-06-26T04:48:05.502Z,21.09
2023-06-26T04:49:05.512Z,21.14
2023-06-26T04:50:05.465Z,21.15
2023-06-26T04:51:05.484Z,21.21
2023-06-26T04:52:05.450Z,21.29
2023-06-26T04:53:05.458Z,21.36
2023-06-26T04:54:05.448Z,21.37
2023-06-26T04:55:05.433Z,21.43
2023-06-26T04:56:05.398Z,21.46
2023-06-26T04:57:05.409Z,21.51
2023-06-26T04:58:05.382Z,21.55
2023-06-26T04:59:05.391Z,21.64
2023-06-26T05:00:05.388Z,21.70
2023-06-26T05:01:05.406Z,21.79
2023-06-26T05:02:05.369Z,21.95
2023-06-26T05:03:05.456Z,22.00
2023-06-26T05:04:05.326Z,22.11
2023-06-26T05:05:05.323Z,22.15
2023-06-26T05:06:09.147Z,22.18
2023-06-26T05:07:05.333Z,22.20
2023-06-26T05:08:05.286Z,22.25
2023-06-26T05:09:05.282Z,22.28
2023-06-26T05:10:05.353Z,22.33
2023-06-26T05:11:05.287Z,22.38
2023-06-26T05:12:05.247Z,22.39
2023-06-26T05:13:05.245Z,22.39
2023-06-26T05:14:05.221Z,22.41
2023-06-26T05:15:05.232Z,22.47
2023-06-26T05:16:05.181Z,22.53
2023-06-26T05:17:05.201Z,22.60
2023-06-26T05:18:05.174Z,22.63
2023-06-26T05:19:05.172Z,22.63
2023-06-26T05:20:05.167Z,22.62
2023-06-26T05:21:05.135Z,22.59
2023-06-26T05:22:05.145Z,22.57
2023-06-26T05:23:05.107Z,22.60
2023-06-26T05:24:05.281Z,22.62
2023-06-26T05:25:05.096Z,22.66
2023-06-26T05:26:05.112Z,22.72
2023-06-26T05:27:05.067Z,22.69
2023-06-26T05:28:05.086Z,22.68
2023-06-26T05:29:05.043Z,22.72
2023-06-26T05:30:05.085Z,22.75
2023-06-26T05:31:05.032Z,22.73
2023-06-26T05:32:05.055Z,22.78
2023-06-26T05:33:05.037Z,22.80
2023-06-26T05:34:05.024Z,22.76
2023-06-26T05:35:05.063Z,22.72
2023-06-26T05:36:05.041Z,22.72
2023-06-26T05:37:05.017Z,22.73
2023-06-26T05:38:04.973Z,22.70
2023-06-26T05:39:04.974Z,22.72
2023-06-26T05:40:04.968Z,22.70
2023-06-26T05:41:04.921Z,22.70
2023-06-26T05:42:04.984Z,22.72
2023-06-26T05:43:04.922Z,22.70
2023-06-26T05:44:04.914Z,22.75
2023-06-26T05:45:04.877Z,22.72
2023-06-26T05:46:04.924Z,22.72
2023-06-26T05:47:04.863Z,22.70
2023-06-26T05:48:05.066Z,22.73
2023-06-26T05:49:04.847Z,22.73
2023-06-26T05:50:04.849Z,22.76
2023-06-26T05:51:04.855Z,22.75
2023-06-26T05:52:04.857Z,22.75
2023-06-26T05:53:04.798Z,22.80
2023-06-26T05:54:04.833Z,22.83
2023-06-26T05:55:04.779Z,22.81
2023-06-26T05:56:04.824Z,22.83
2023-06-26T05:57:04.752Z,22.84
2023-06-26T05:58:04.764Z,22.84
2023-06-26T05:59:04.736Z,22.83
2023-06-26T06:00:04.768Z,22.85
2023-06-26T06:01:04.716Z,22.84
2023-06-26T06:02:04.814Z,22.84
2023-06-26T06:03:04.762Z,22.87
2023-06-26T06:04:04.784Z,22.91
2023-06-26T06:05:04.714Z,22.93
2023-06-26T06:06:04.698Z,22.96
2023-06-26T06:07:04.694Z,22.98
2023-06-26T06:08:04.661Z,22.99
2023-06-26T06:09:04.629Z,23.00
2023-06-26T06:10:04.630Z,23.02
2023-06-26T06:11:04.625Z,23.03
2023-06-26T06:12:04.641Z,23.00
2023-06-26T06:13:04.587Z,23.03
2023-06-26T06:14:04.600Z,23.05
2023-06-26T06:15:04.575Z,23.05
2023-06-26T06:16:04.574Z,23.06
2023-06-26T06:17:04.545Z,23.08
2023-06-26T06:18:04.654Z,23.10
2023-06-26T06:19:04.516Z,23.13
2023-06-26T06:20:04.556Z,23.15
2023-06-26T06:21:04.525Z,23.13
2023-06-26T06:22:04.515Z,23.18
2023-06-26T06:23:04.557Z,23.18
2023-06-26T06:24:04.564Z,23.24
2023-06-26T06:25:04.459Z,23.24
2023-06-26T06:26:04.476Z,23.27
2023-06-26T06:27:04.437Z,23.27
2023-06-26T06:28:04.447Z,23.27
2023-06-26T06:29:04.416Z,23.28
2023-06-26T06:30:06.130Z,23.31
2023-06-26T06:31:04.417Z,23.32
2023-06-26T06:32:04.421Z,23.31
2023-06-26T06:33:04.467Z,23.27
2023-06-26T06:34:04.400Z,23.24
2023-06-26T06:35:04.348Z,23.27
2023-06-26T06:36:04.388Z,23.21
2023-06-26T06:37:04.346Z,23.23
2023-06-26T06:38:04.425Z,23.15
2023-06-26T06:39:04.312Z,23.06
2023-06-26T06:40:04.319Z,22.99
2023-06-26T06:41:04.290Z,22.96
2023-06-26T06:42:04.338Z,22.96
2023-06-26T06:43:04.281Z,22.98
2023-06-26T06:44:04.285Z,22.99
2023-06-26T06:45:04.248Z,23.03
2023-06-26T06:46:04.269Z,23.09
2023-06-26T06:47:04.223Z,23.15
2023-06-26T06:48:04.298Z,23.15
2023-06-26T06:49:04.204Z,23.15
2023-06-26T06:50:04.234Z,23.12
2023-06-26T06:51:04.178Z,23.10
2023-06-26T06:52:04.199Z,23.12
2023-06-26T06:53:04.232Z,23.18
2023-06-26T06:54:04.196Z,23.21
2023-06-26T06:55:04.151Z,23.23
2023-06-26T06:56:04.158Z,23.32
2023-06-26T06:57:04.116Z,23.36
2023-06-26T06:58:05.753Z,23.39
2023-06-26T06:59:04.092Z,23.40
2023-06-26T07:00:04.155Z,23.39
2023-06-26T07:01:04.086Z,23.37
2023-06-26T07:02:04.145Z,23.37
2023-06-26T07:03:04.211Z,23.41
2023-06-26T07:04:04.126Z,23.40
2023-06-26T07:05:04.174Z,23.34
2023-06-26T07:06:04.086Z,23.27
2023-06-26T07:07:04.066Z,23.28
2023-06-26T07:08:04.089Z,23.25
2023-06-26T07:09:04.015Z,23.20
2023-06-26T07:10:04.020Z,23.20
2023-06-26T07:11:04.006Z,23.15
2023-06-26T07:12:04.022Z,23.09
2023-06-26T07:13:03.998Z,23.06
2023-06-26T07:14:03.976Z,23.08
2023-06-26T07:15:03.960Z,23.03
2023-06-26T07:16:03.991Z,22.98
2023-06-26T07:17:03.939Z,22.91
2023-06-26T07:18:04.014Z,22.88
2023-06-26T07:19:03.908Z,22.87
2023-06-26T07:20:03.932Z,22.87
2023-06-26T07:21:03.885Z,22.85
2023-06-26T07:22:03.894Z,22.87
2023-06-26T07:23:03.855Z,22.91
2023-06-26T07:24:03.898Z,22.94
2023-06-26T07:25:03.926Z,23.02
2023-06-26T07:26:03.839Z,23.10
2023-06-26T07:27:03.823Z,23.23
2023-06-26T07:28:03.809Z,23.20
2023-06-26T07:29:03.784Z,23.13
2023-06-26T07:30:04.481Z,23.05
2023-06-26T07:31:03.790Z,23.00
2023-06-26T07:32:03.793Z,22.90
2023-06-26T07:33:03.794Z,22.65
2023-06-26T07:34:03.759Z,22.38
2023-06-26T07:35:03.732Z,22.23
2023-06-26T07:36:03.760Z,22.20
2023-06-26T07:37:03.705Z,22.20
2023-06-26T07:38:03.770Z,22.20
2023-06-26T07:39:03.681Z,22.23
2023-06-26T07:40:03.723Z,22.29
2023-06-26T07:41:03.667Z,22.32
2023-06-26T07:42:03.687Z,22.39
2023-06-26T07:43:03.639Z,22.44
2023-06-26T07:44:03.648Z,22.54
2023-06-26T07:45:03.616Z,22.63
2023-06-26T07:46:03.639Z,22.83
2023-06-26T07:47:03.660Z,22.99
2023-06-26T07:48:03.685Z,23.08
2023-06-26T07:49:03.576Z,23.17
2023-06-26T07:50:03.612Z,23.20
2023-06-26T07:51:03.554Z,23.28
2023-06-26T07:52:03.574Z,23.41
2023-06-26T07:53:03.523Z,23.48
2023-06-26T07:54:03.586Z,23.54
2023-06-26T07:55:03.518Z,23.59
2023-06-26T07:56:03.528Z,23.68
2023-06-26T07:57:03.499Z,23.68
2023-06-26T07:58:03.520Z,23.65
2023-06-26T07:59:03.466Z,23.50
2023-06-26T08:00:03.487Z,23.37
2023-06-26T08:01:03.442Z,23.36
2023-06-26T08:02:03.459Z,23.47
2023-06-26T08:03:03.730Z,23.55
2023-06-26T08:04:03.559Z,23.61
2023-06-26T08:05:03.588Z,23.54
2023-06-26T08:06:03.445Z,23.41
2023-06-26T08:07:03.389Z,23.34
2023-06-26T08:08:03.405Z,23.36
2023-06-26T08:09:03.377Z,23.37
2023-06-26T08:10:03.419Z,23.41
2023-06-26T08:11:03.340Z,23.50
2023-06-26T08:12:03.408Z,23.50
2023-06-26T08:13:03.320Z,23.48
2023-06-26T08:14:03.353Z,23.44
2023-06-26T08:15:03.499Z,23.44
2023-06-26T08:16:03.347Z,23.44
2023-06-26T08:17:03.284Z,23.46
2023-06-26T08:18:03.334Z,23.46
2023-06-26T08:19:03.253Z,23.44
2023-06-26T08:20:03.260Z,23.41
2023-06-26T08:21:03.235Z,23.40
2023-06-26T08:22:03.263Z,23.46
2023-06-26T08:23:03.219Z,23.56
2023-06-26T08:24:03.257Z,23.54
2023-06-26T08:25:03.196Z,23.54
2023-06-26T08:26:03.201Z,23.54
2023-06-26T08:27:03.173Z,23.55
2023-06-26T08:28:03.182Z,23.55
2023-06-26T08:29:03.144Z,23.48
2023-06-26T08:30:03.206Z,23.40
2023-06-26T08:31:03.193Z,23.36
2023-06-26T08:32:03.141Z,23.36
2023-06-26T08:33:03.176Z,23.44
2023-06-26T08:34:03.225Z,23.46
2023-06-26T08:35:03.103Z,23.39
2023-06-26T08:36:03.140Z,23.43
2023-06-26T08:37:03.151Z,23.44
2023-06-26T08:38:03.073Z,23.47
2023-06-26T08:39:03.059Z,23.55
2023-06-26T08:40:03.063Z,23.62
2023-06-26T08:41:03.025Z,23.65
2023-06-26T08:42:03.084Z,23.73
2023-06-26T08:43:02.998Z,23.77
2023-06-26T08:44:03.015Z,23.71
2023-06-26T08:45:03.090Z,23.66
2023-06-26T08:46:03.045Z,23.76
2023-06-26T08:47:02.967Z,23.86
2023-06-26T08:48:03.022Z,23.86
2023-06-26T08:49:02.970Z,23.96
2023-06-26T08:50:02.987Z,24.06
2023-06-26T08:51:02.936Z,24.13
2023-06-26T08:52:02.928Z,24.11
2023-06-26T08:53:02.906Z,23.98
2023-06-26T08:54:02.947Z,23.95
2023-06-26T08:55:02.895Z,23.93
2023-06-26T08:56:02.890Z,23.91
2023-06-26T08:57:02.869Z,23.86
2023-06-26T08:58:02.945Z,23.87
2023-06-26T08:59:02.834Z,23.78
2023-06-26T09:00:02.880Z,23.78
2023-06-26T09:01:02.834Z,23.80
2023-06-26T09:02:02.959Z,23.80
2023-06-26T09:03:02.867Z,23.80
2023-06-26T09:04:02.838Z,23.69
2023-06-26T09:05:02.792Z,23.58
2023-06-26T09:06:02.802Z,23.54
2023-06-26T09:07:02.966Z,23.55
2023-06-26T09:08:02.872Z,23.55
2023-06-26T09:09:02.722Z,23.47
2023-06-26T09:10:02.736Z,23.43
2023-06-26T09:11:02.710Z,23.39
2023-06-26T09:12:02.752Z,23.48
2023-06-26T09:13:02.706Z,23.58
2023-06-26T09:14:02.696Z,23.77
2023-06-26T09:15:02.721Z,23.86
2023-06-26T09:16:02.768Z,24.02
2023-06-26T09:17:02.773Z,24.03
2023-06-26T09:18:02.752Z,23.98
2023-06-26T09:19:02.621Z,24.11
2023-06-26T09:20:02.661Z,24.21
2023-06-26T09:21:02.609Z,24.29
2023-06-26T09:22:02.616Z,24.28
2023-06-26T09:23:02.581Z,24.18
2023-06-26T09:24:02.625Z,24.14
2023-06-26T09:25:02.567Z,23.96
2023-06-26T09:26:02.589Z,23.91
2023-06-26T09:27:02.544Z,23.93
2023-06-26T09:28:02.558Z,23.93
2023-06-26T09:29:02.574Z,23.99
2023-06-26T09:30:02.552Z,24.08
2023-06-26T09:31:02.499Z,24.18
2023-06-26T09:32:02.547Z,24.20
2023-06-26T09:33:02.506Z,24.20
2023-06-26T09:34:02.503Z,24.21
2023-06-26T09:35:02.473Z,24.26
2023-06-26T09:36:02.480Z,24.24
2023-06-26T09:37:02.460Z,24.10
2023-06-26T09:38:02.446Z,23.92
2023-06-26T09:39:02.436Z,23.81
2023-06-26T09:40:02.428Z,23.73
2023-06-26T09:41:02.487Z,23.61
2023-06-26T09:42:03.644Z,23.62
2023-06-26T09:43:02.462Z,23.68
2023-06-26T09:44:02.367Z,23.74
2023-06-26T09:45:02.387Z,23.76
2023-06-26T09:46:02.478Z,23.68
2023-06-26T09:47:02.360Z,23.62
2023-06-26T09:48:02.410Z,23.66
2023-06-26T09:49:02.349Z,23.81
2023-06-26T09:50:02.320Z,23.93
2023-06-26T09:51:12.719Z,23.74
2023-06-26T09:52:02.451Z,23.74
2023-06-26T09:53:02.302Z,23.86
2023-06-26T09:54:02.290Z,23.92
2023-06-26T09:55:02.307Z,24.01
2023-06-26T09:56:02.244Z,24.20
2023-06-26T09:57:02.249Z,24.32
2023-06-26T09:58:04.596Z,24.42
2023-06-26T09:59:02.229Z,24.50
2023-06-26T10:00:02.234Z,24.45
2023-06-26T10:01:02.364Z,24.33
2023-06-26T10:02:02.296Z,24.38
2023-06-26T10:03:02.384Z,24.43
2023-06-26T10:04:06.001Z,24.38
2023-06-26T10:05:02.168Z,24.36
2023-06-26T10:06:02.148Z,24.32
2023-06-26T10:07:02.187Z,24.18
2023-06-26T10:08:02.121Z,24.10
2023-06-26T10:09:02.161Z,23.99
2023-06-26T10:10:02.092Z,23.92
2023-06-26T10:11:02.140Z,23.83
2023-06-26T10:12:02.110Z,23.74
2023-06-26T10:13:02.094Z,23.77
2023-06-26T10:14:15.773Z,23.80
2023-06-26T10:15:02.084Z,23.95
2023-06-26T10:16:02.028Z,24.14
2023-06-26T10:17:02.082Z,24.36
2023-06-26T10:18:02.101Z,24.43
2023-06-26T10:19:02.038Z,24.42
2023-06-26T10:20:04.496Z,24.38
2023-06-26T10:21:02.015Z,24.32
2023-06-26T10:22:01.974Z,24.30
2023-06-26T10:23:02.017Z,24.18
2023-06-26T10:24:01.970Z,24.21
2023-06-26T10:25:01.976Z,24.20
2023-06-26T10:26:04.427Z,24.42
2023-06-26T10:27:01.936Z,24.55
2023-06-26T10:28:01.906Z,24.51
2023-06-26T10:29:01.921Z,24.43
2023-06-26T10:30:01.929Z,24.43
2023-06-26T10:31:01.919Z,24.43
2023-06-26T10:32:04.560Z,24.40
2023-06-26T10:33:01.935Z,24.40
2023-06-26T10:34:01.844Z,24.36
2023-06-26T10:35:01.924Z,24.38
2023-06-26T10:36:01.858Z,24.43
2023-06-26T10:37:01.859Z,24.61
2023-06-26T10:38:04.623Z,24.58
2023-06-26T10:39:01.809Z,24.50
2023-06-26T10:40:01.817Z,24.45
2023-06-26T10:41:01.811Z,24.39
2023-06-26T10:42:05.435Z,24.29
2023-06-26T10:43:01.911Z,24.18
2023-06-26T10:44:04.279Z,24.32
2023-06-26T10:45:01.757Z,24.36
2023-06-26T10:46:01.721Z,24.35
2023-06-26T10:47:01.735Z,24.39
2023-06-26T10:48:01.772Z,24.48
2023-06-26T10:49:01.718Z,24.60
2023-06-26T10:50:11.243Z,24.57
2023-06-26T10:51:01.685Z,24.50
2023-06-26T10:52:01.654Z,24.50
2023-06-26T10:53:01.668Z,24.65
2023-06-26T10:54:01.678Z,24.78
2023-06-26T10:55:01.645Z,24.91
2023-06-26T10:56:04.734Z,25.10
2023-06-26T10:57:01.657Z,25.11
2023-06-26T10:58:01.604Z,25.21
2023-06-26T10:59:01.615Z,25.29
2023-06-26T11:00:01.595Z,25.21
2023-06-26T11:01:01.622Z,24.88
2023-06-26T11:02:04.798Z,24.53
2023-06-26T11:03:01.645Z,24.13
2023-06-26T11:04:01.575Z,23.96
2023-06-26T11:05:01.544Z,23.83
2023-06-26T11:06:01.530Z,23.83
2023-06-26T11:07:01.566Z,23.80
2023-06-26T11:08:01.514Z,23.76
2023-06-26T11:09:01.534Z,23.81
2023-06-26T11:10:01.493Z,24.06
2023-06-26T11:11:01.484Z,24.23
2023-06-26T11:12:01.490Z,24.42
2023-06-26T11:13:01.469Z,24.57
2023-06-26T11:14:03.064Z,24.66
2023-06-26T11:15:01.444Z,24.89
2023-06-26T11:16:01.413Z,24.91
2023-06-26T11:17:01.424Z,25.01
2023-06-26T11:18:01.443Z,25.11
2023-06-26T11:19:01.418Z,25.17
2023-06-26T11:20:03.719Z,25.28
2023-06-26T11:21:01.417Z,25.29
2023-06-26T11:22:01.392Z,25.25
2023-06-26T11:23:01.373Z,25.26
2023-06-26T11:24:01.405Z,25.23
2023-06-26T11:25:01.367Z,25.26
2023-06-26T11:26:01.362Z,25.13
2023-06-26T11:27:01.334Z,24.98
2023-06-26T11:28:01.287Z,24.95
2023-06-26T11:29:01.305Z,25.06
2023-06-26T11:30:01.304Z,25.10
2023-06-26T11:31:01.322Z,25.22
2023-06-26T11:32:04.100Z,25.38
2023-06-26T11:33:01.307Z,25.32
2023-06-26T11:34:01.240Z,25.36
2023-06-26T11:35:01.249Z,25.50
2023-06-26T11:36:01.507Z,25.60
2023-06-26T11:37:01.336Z,25.38
2023-06-26T11:38:03.908Z,25.11
2023-06-26T11:39:01.202Z,24.91
2023-06-26T11:40:01.170Z,25.03
2023-06-26T11:41:01.238Z,25.10
2023-06-26T11:42:01.172Z,25.25
2023-06-26T11:43:01.159Z,25.43
2023-06-26T11:44:02.485Z,25.59
2023-06-26T11:45:01.134Z,25.62
2023-06-26T11:46:01.096Z,25.46
2023-06-26T11:47:01.140Z,25.32
2023-06-26T11:48:01.240Z,25.31
2023-06-26T11:49:01.275Z,25.25
2023-06-26T11:50:01.078Z,25.26
2023-06-26T11:51:01.081Z,25.32
2023-06-26T11:52:01.045Z,25.40
2023-06-26T11:53:01.062Z,25.26
2023-06-26T11:54:01.035Z,25.03
2023-06-26T11:55:01.030Z,24.89
2023-06-26T11:56:00.990Z,25.01
2023-06-26T11:57:01.034Z,25.16
2023-06-26T11:58:00.968Z,25.28
2023-06-26T11:59:00.979Z,25.35
2023-06-26T12:00:00.989Z,25.50
2023-06-26T12:01:00.963Z,25.66
2023-06-26T12:02:01.121Z,25.68
2023-06-26T12:03:01.022Z,25.75
2023-06-26T12:04:01.238Z,25.73
2023-06-26T12:05:00.957Z,25.66
2023-06-26T12:06:00.904Z,25.78
2023-06-26T12:07:00.993Z,25.85
2023-06-26T12:08:00.865Z,25.78
2023-06-26T12:09:00.866Z,25.85
2023-06-26T12:10:00.935Z,25.99
2023-06-26T12:11:00.885Z,25.93
2023-06-26T12:12:00.906Z,26.03
2023-06-26T12:13:00.829Z,26.18
2023-06-26T12:14:00.791Z,26.19
2023-06-26T12:15:00.859Z,26.19
2023-06-26T12:16:00.769Z,26.21
2023-06-26T12:17:00.818Z,26.18
2023-06-26T12:18:00.792Z,26.02
2023-06-26T12:19:00.798Z,25.91
2023-06-26T12:20:00.748Z,25.81
2023-06-26T12:21:00.746Z,25.81
2023-06-26T12:22:00.721Z,25.62
2023-06-26T12:23:00.718Z,25.28
2023-06-26T12:24:02.079Z,25.07
2023-06-26T12:25:00.710Z,24.98
2023-06-26T12:26:00.660Z,24.99
2023-06-26T12:27:00.677Z,25.04
2023-06-26T12:28:00.655Z,25.04
2023-06-26T12:29:00.673Z,24.89
2023-06-26T12:30:00.726Z,24.78
2023-06-26T12:31:00.672Z,24.84
2023-06-26T12:32:00.716Z,24.73
2023-06-26T12:33:00.714Z,24.57
2023-06-26T12:34:00.616Z,24.55
2023-06-26T12:35:00.640Z,24.47
2023-06-26T12:36:00.575Z,24.33
2023-06-26T12:37:00.619Z,24.13
2023-06-26T12:38:00.544Z,24.08
2023-06-26T12:39:00.563Z,24.17
2023-06-26T12:40:00.592Z,24.16
2023-06-26T12:41:00.540Z,24.21
2023-06-26T12:42:00.519Z,24.32
2023-06-26T12:43:00.520Z,24.36
2023-06-26T12:44:00.478Z,24.35
2023-06-26T12:45:00.513Z,24.40
2023-06-26T12:46:00.485Z,24.55
2023-06-26T12:47:00.473Z,24.70
2023-06-26T12:48:00.498Z,24.73
2023-06-26T12:49:00.447Z,24.65
2023-06-26T12:50:00.431Z,24.50
2023-06-26T12:51:00.427Z,24.50
2023-06-26T12:52:00.411Z,24.42